BAW639 EKCH-EGLL
Flight info
| Callsign | BAW639 |
|---|---|
| Flight time | N/A |
| Altitude | 38000 |
| Route | LANGO2A LANGO DCT RAXLU DCT JUIST DCT ABNED L980 LOGAN LOGAN2H |
| Aircraft | B752/M-SDE2E3FGHIJ3J4J7RWXY/LB1 |
Departure
| Time | N/A |
|---|---|
| Airport | Copenhagen Kastrup Airport (EKCH) |
Arrival
| Time | 2026-05-05 18:38 |
|---|---|
| Airport | London Heathrow Airport (EGLL) |
| Time | Latitude | Longitude | Altitude | Speed | Heading |
|---|---|---|---|---|---|
| 2026-05-05 18:37 | 51.47749 | -0.50160 | 332 ft | 128 kts | 85° |
| 2026-05-05 18:38 | 51.47749 | -0.48714 | 166 ft | 130 kts | 86° |
| 2026-05-05 18:38 | 51.47754 | -0.47310 | 94 ft | 118 kts | 89° |
| 2026-05-05 18:38 | 51.47757 | -0.46372 | 94 ft | 47 kts | 89° |
| 2026-05-05 18:38 | 51.47757 | -0.46032 | 94 ft | 26 kts | 88° |
| 2026-05-05 18:39 | 51.47758 | -0.45756 | 94 ft | 22 kts | 89° |
| 2026-05-05 18:39 | 51.47756 | -0.45558 | 94 ft | 12 kts | 103° |
| 2026-05-05 18:39 | 51.47699 | -0.45470 | 94 ft | 8 kts | 170° |
| 2026-05-05 18:39 | 51.47672 | -0.45467 | 94 ft | 6 kts | 177° |
| 2026-05-05 18:40 | 51.47613 | -0.45481 | 94 ft | 6 kts | 220° |
| 2026-05-05 18:40 | 51.47596 | -0.45558 | 94 ft | 11 kts | 266° |
| 2026-05-05 18:40 | 51.47595 | -0.45713 | 94 ft | 13 kts | 269° |
| 2026-05-05 18:40 | 51.47595 | -0.45906 | 94 ft | 21 kts | 270° |
| 2026-05-05 18:41 | 51.47593 | -0.46136 | 94 ft | 19 kts | 269° |
| 2026-05-05 18:41 | 51.47593 | -0.46332 | 94 ft | 14 kts | 269° |
| 2026-05-05 18:41 | 51.47592 | -0.46473 | 94 ft | 11 kts | 269° |
| 2026-05-05 18:41 | 51.47591 | -0.46651 | 94 ft | 19 kts | 269° |
| 2026-05-05 18:42 | 51.47584 | -0.46866 | 94 ft | 18 kts | 261° |
| 2026-05-05 18:42 | 51.47581 | -0.47068 | 94 ft | 18 kts | 269° |
| 2026-05-05 18:42 | 51.47581 | -0.47265 | 94 ft | 18 kts | 270° |
| 2026-05-05 18:42 | 51.47580 | -0.47473 | 94 ft | 18 kts | 269° |
| 2026-05-05 18:43 | 51.47579 | -0.47683 | 94 ft | 19 kts | 269° |
| 2026-05-05 18:43 | 51.47578 | -0.47894 | 94 ft | 19 kts | 269° |
| 2026-05-05 18:43 | 51.47578 | -0.48100 | 94 ft | 17 kts | 269° |
| 2026-05-05 18:43 | 51.47577 | -0.48282 | 94 ft | 15 kts | 269° |
| 2026-05-05 18:44 | 51.47572 | -0.48438 | 94 ft | 12 kts | 245° |
| 2026-05-05 18:44 | 51.47450 | -0.48476 | 94 ft | 23 kts | 180° |
| 2026-05-05 18:44 | 51.47290 | -0.48474 | 94 ft | 22 kts | 179° |
| 2026-05-05 18:44 | 51.47147 | -0.48473 | 94 ft | 17 kts | 179° |
| 2026-05-05 18:45 | 51.47046 | -0.48471 | 94 ft | 11 kts | 180° |
| 2026-05-05 18:45 | 51.47002 | -0.48483 | 94 ft | 4 kts | 228° |
| 2026-05-05 18:45 | 51.46993 | -0.48550 | 94 ft | 6 kts | 269° |
| 2026-05-05 18:45 | 51.46993 | -0.48596 | 94 ft | 0 kts | 269° |
| 2026-05-05 18:46 | 51.46993 | -0.48598 | 94 ft | 0 kts | 269° |
| 2026-05-05 18:46 | 51.46993 | -0.48590 | 94 ft | 1 kts | 268° |
| 2026-05-05 18:46 | 51.46993 | -0.48591 | 94 ft | 0 kts | 269° |